createdAt,value
2023-09-28T00:00:07.679Z,1013.40
2023-09-28T00:01:07.694Z,1013.41
2023-09-28T00:02:07.701Z,1013.42
2023-09-28T00:03:08.013Z,1013.48
2023-09-28T00:04:08.426Z,1013.43
2023-09-28T00:05:07.657Z,1013.46
2023-09-28T00:06:07.587Z,1013.44
2023-09-28T00:07:07.578Z,1013.44
2023-09-28T00:08:07.571Z,1013.43
2023-09-28T00:09:07.571Z,1013.42
2023-09-28T00:10:07.547Z,1013.41
2023-09-28T00:11:07.645Z,1013.43
2023-09-28T00:12:07.495Z,1013.41
2023-09-28T00:13:07.476Z,1013.42
2023-09-28T00:14:07.534Z,1013.45
2023-09-28T00:15:07.528Z,1013.50
2023-09-28T00:16:07.441Z,1013.53
2023-09-28T00:17:07.494Z,1013.57
2023-09-28T00:18:07.437Z,1013.57
2023-09-28T00:19:07.468Z,1013.61
2023-09-28T00:20:07.504Z,1013.63
2023-09-28T00:21:07.381Z,1013.62
2023-09-28T00:22:07.366Z,1013.56
2023-09-28T00:23:07.417Z,1013.61
2023-09-28T00:24:07.364Z,1013.59
2023-09-28T00:25:07.340Z,1013.59
2023-09-28T00:26:07.383Z,1013.49
2023-09-28T00:27:07.345Z,1013.48
2023-09-28T00:28:07.308Z,1013.45
2023-09-28T00:29:07.306Z,1013.50
2023-09-28T00:30:07.290Z,1013.45
2023-09-28T00:31:07.318Z,1013.48
2023-09-28T00:32:07.269Z,1013.47
2023-09-28T00:33:07.278Z,1013.46
2023-09-28T00:34:07.191Z,1013.48
2023-09-28T00:35:07.265Z,1013.46
2023-09-28T00:36:07.209Z,1013.50
2023-09-28T00:37:07.164Z,1013.46
2023-09-28T00:38:07.216Z,1013.49
2023-09-28T00:39:08.107Z,1013.53
2023-09-28T00:40:07.115Z,1013.51
2023-09-28T00:41:07.130Z,1013.46
2023-09-28T00:42:07.104Z,1013.57
2023-09-28T00:43:07.060Z,1013.58
2023-09-28T00:44:07.136Z,1013.60
2023-09-28T00:45:07.064Z,1013.54
2023-09-28T00:46:07.066Z,1013.46
2023-09-28T00:47:07.088Z,1013.45
2023-09-28T00:48:07.043Z,1013.41
2023-09-28T00:49:06.968Z,1013.38
2023-09-28T00:50:07.063Z,1013.39
2023-09-28T00:51:06.997Z,1013.42
2023-09-28T00:52:06.982Z,1013.45
2023-09-28T00:53:06.969Z,1013.44
2023-09-28T00:54:06.943Z,1013.39
2023-09-28T00:55:06.911Z,1013.37
2023-09-28T00:56:06.916Z,1013.39
2023-09-28T00:57:06.926Z,1013.35
2023-09-28T00:58:06.913Z,1013.30
2023-09-28T00:59:07.045Z,1013.36
2023-09-28T01:00:06.834Z,1013.35
2023-09-28T01:01:06.825Z,1013.36
2023-09-28T01:02:06.836Z,1013.36
2023-09-28T01:03:07.574Z,1013.30
2023-09-28T01:04:06.792Z,1013.33
2023-09-28T01:05:06.767Z,1013.31
2023-09-28T01:06:06.747Z,1013.34
2023-09-28T01:07:06.788Z,1013.35
2023-09-28T01:08:06.787Z,1013.31
2023-09-28T01:09:06.726Z,1013.35
2023-09-28T01:10:06.684Z,1013.37
2023-09-28T01:11:06.748Z,1013.39
2023-09-28T01:12:06.680Z,1013.32
2023-09-28T01:13:06.679Z,1013.36
2023-09-28T01:14:06.649Z,1013.39
2023-09-28T01:15:06.621Z,1013.37
2023-09-28T01:16:06.625Z,1013.34
2023-09-28T01:17:06.629Z,1013.32
2023-09-28T01:18:06.615Z,1013.27
2023-09-28T01:19:06.601Z,1013.27
2023-09-28T01:20:06.743Z,1013.29
2023-09-28T01:21:06.560Z,1013.21
2023-09-28T01:22:06.510Z,1013.23
2023-09-28T01:23:06.564Z,1013.26
2023-09-28T01:24:06.515Z,1013.25
2023-09-28T01:25:06.476Z,1013.24
2023-09-28T01:26:06.508Z,1013.25
2023-09-28T01:27:06.514Z,1013.27
2023-09-28T01:28:06.410Z,1013.22
2023-09-28T01:29:06.489Z,1013.21
2023-09-28T01:30:06.398Z,1013.14
2023-09-28T01:31:06.498Z,1013.12
2023-09-28T01:32:06.418Z,1013.10
2023-09-28T01:33:06.383Z,1013.11
2023-09-28T01:34:06.360Z,1013.05
2023-09-28T01:35:06.347Z,1013.03
2023-09-28T01:36:06.335Z,1013.00
2023-09-28T01:37:06.278Z,1012.90
2023-09-28T01:38:06.290Z,1012.84
2023-09-28T01:39:06.309Z,1012.80
2023-09-28T01:40:06.272Z,1012.74
2023-09-28T01:41:06.279Z,1012.73
2023-09-28T01:42:06.233Z,1012.75
2023-09-28T01:43:06.229Z,1012.77
2023-09-28T01:44:06.266Z,1012.79
2023-09-28T01:45:06.210Z,1012.82
2023-09-28T01:46:06.158Z,1012.77
2023-09-28T01:47:06.193Z,1012.77
2023-09-28T01:48:06.174Z,1012.81
2023-09-28T01:49:06.145Z,1012.83
2023-09-28T01:50:06.148Z,1012.85
2023-09-28T01:51:06.146Z,1012.85
2023-09-28T01:52:06.103Z,1012.88
2023-09-28T01:53:06.118Z,1012.86
2023-09-28T01:54:06.112Z,1012.88
2023-09-28T01:55:06.049Z,1012.78
2023-09-28T01:56:06.129Z,1012.83
2023-09-28T01:57:06.071Z,1012.83
2023-09-28T01:58:05.992Z,1012.83
2023-09-28T01:59:06.016Z,1012.86
2023-09-28T02:00:05.979Z,1012.87
2023-09-28T02:01:05.953Z,1012.82
2023-09-28T02:02:06.001Z,1012.81
2023-09-28T02:03:06.138Z,1012.83
2023-09-28T02:04:05.902Z,1012.80
2023-09-28T02:05:05.921Z,1012.83
2023-09-28T02:06:05.971Z,1012.85
2023-09-28T02:07:05.868Z,1012.91
2023-09-28T02:08:05.931Z,1012.90
2023-09-28T02:09:05.822Z,1012.91
2023-09-28T02:10:05.807Z,1012.98
2023-09-28T02:11:05.814Z,1012.95
2023-09-28T02:12:05.800Z,1013.00
2023-09-28T02:13:05.803Z,1013.02
2023-09-28T02:14:05.818Z,1012.95
2023-09-28T02:15:05.763Z,1012.99
2023-09-28T02:16:05.828Z,1012.97
2023-09-28T02:17:05.725Z,1013.01
2023-09-28T02:18:05.732Z,1012.93
2023-09-28T02:19:05.678Z,1012.92
2023-09-28T02:20:05.756Z,1012.87
2023-09-28T02:21:05.691Z,1012.87
2023-09-28T02:22:05.661Z,1012.85
2023-09-28T02:23:05.714Z,1012.89
2023-09-28T02:24:05.671Z,1012.90
2023-09-28T02:25:05.662Z,1012.92
2023-09-28T02:26:05.642Z,1012.91
2023-09-28T02:27:05.595Z,1012.98
2023-09-28T02:28:05.629Z,1012.96
2023-09-28T02:29:05.583Z,1012.99
2023-09-28T02:30:05.541Z,1013.00
2023-09-28T02:31:05.592Z,1013.07
2023-09-28T02:32:05.595Z,1013.11
2023-09-28T02:33:05.543Z,1013.19
2023-09-28T02:34:05.529Z,1013.18
2023-09-28T02:35:05.500Z,1013.19
2023-09-28T02:36:05.458Z,1013.20
2023-09-28T02:37:05.453Z,1013.17
2023-09-28T02:38:05.505Z,1013.14
2023-09-28T02:39:05.497Z,1013.16
2023-09-28T02:40:05.414Z,1013.19
2023-09-28T02:41:05.401Z,1013.26
2023-09-28T02:42:05.394Z,1013.28
2023-09-28T02:43:05.370Z,1013.27
2023-09-28T02:44:06.914Z,1013.33
2023-09-28T02:45:05.333Z,1013.25
2023-09-28T02:46:05.345Z,1013.21
2023-09-28T02:47:05.326Z,1013.22
2023-09-28T02:48:05.418Z,1013.22
2023-09-28T02:49:05.265Z,1013.21
2023-09-28T02:50:05.443Z,1013.16
2023-09-28T02:51:05.268Z,1013.19
2023-09-28T02:52:05.241Z,1013.13
2023-09-28T02:53:05.293Z,1013.10
2023-09-28T02:54:05.238Z,1013.12
2023-09-28T02:55:05.211Z,1013.07
2023-09-28T02:56:05.228Z,1013.07
2023-09-28T02:57:05.162Z,1013.10
2023-09-28T02:58:05.158Z,1013.11
2023-09-28T02:59:05.193Z,1013.11
2023-09-28T03:00:05.156Z,1013.07
2023-09-28T03:01:05.132Z,1013.10
2023-09-28T03:02:05.197Z,1013.07
2023-09-28T03:03:05.203Z,1013.06
2023-09-28T03:04:05.121Z,1013.02
2023-09-28T03:05:05.124Z,1013.00
2023-09-28T03:06:05.085Z,1013.00
2023-09-28T03:07:05.079Z,1012.96
2023-09-28T03:08:05.094Z,1012.93
2023-09-28T03:09:05.065Z,1012.93
2023-09-28T03:10:04.994Z,1012.88
2023-09-28T03:11:05.000Z,1012.84
2023-09-28T03:12:04.964Z,1012.78
2023-09-28T03:13:04.944Z,1012.78
2023-09-28T03:14:04.990Z,1012.80
2023-09-28T03:15:04.911Z,1012.80
2023-09-28T03:16:04.963Z,1012.84
2023-09-28T03:17:04.872Z,1012.80
2023-09-28T03:18:04.921Z,1012.82
2023-09-28T03:19:04.852Z,1012.77
2023-09-28T03:20:04.838Z,1012.75
2023-09-28T03:21:04.812Z,1012.76
2023-09-28T03:22:04.791Z,1012.77
2023-09-28T03:23:04.773Z,1012.76
2023-09-28T03:24:04.785Z,1012.77
2023-09-28T03:25:05.434Z,1012.73
2023-09-28T03:26:04.781Z,1012.79
2023-09-28T03:27:10.647Z,1012.83
2023-09-28T03:28:05.715Z,1012.86
2023-09-28T03:29:04.767Z,1012.88
2023-09-28T03:30:04.677Z,1012.88
2023-09-28T03:31:04.675Z,1012.93
2023-09-28T03:32:04.736Z,1012.90
2023-09-28T03:33:04.657Z,1012.96
2023-09-28T03:34:04.643Z,1012.96
2023-09-28T03:35:04.631Z,1012.97
2023-09-28T03:36:04.593Z,1012.96
2023-09-28T03:37:04.575Z,1012.92
2023-09-28T03:38:04.644Z,1012.91
2023-09-28T03:39:04.561Z,1012.87
2023-09-28T03:40:04.557Z,1012.89
2023-09-28T03:41:04.541Z,1012.90
2023-09-28T03:42:04.503Z,1012.95
2023-09-28T03:43:04.513Z,1013.01
2023-09-28T03:44:04.512Z,1012.99
2023-09-28T03:45:04.488Z,1013.05
2023-09-28T03:46:04.503Z,1013.01
2023-09-28T03:47:04.464Z,1013.01
2023-09-28T03:48:04.418Z,1012.98
2023-09-28T03:49:04.445Z,1012.96
2023-09-28T03:50:04.559Z,1012.90
2023-09-28T03:51:04.390Z,1012.88
2023-09-28T03:52:04.857Z,1012.95
2023-09-28T03:53:04.393Z,1012.87
2023-09-28T03:54:04.354Z,1012.86
2023-09-28T03:55:04.355Z,1012.85
2023-09-28T03:56:04.368Z,1012.90
2023-09-28T03:57:04.297Z,1012.86
2023-09-28T03:58:04.278Z,1012.88
2023-09-28T03:59:04.312Z,1012.93
2023-09-28T04:00:04.242Z,1012.91
2023-09-28T04:01:04.360Z,1012.97
2023-09-28T04:02:04.266Z,1012.88
2023-09-28T04:03:04.359Z,1012.78
2023-09-28T04:04:04.320Z,1012.76
2023-09-28T04:05:04.230Z,1012.75
2023-09-28T04:06:04.199Z,1012.76
2023-09-28T04:07:04.170Z,1012.75
2023-09-28T04:08:04.300Z,1012.70
2023-09-28T04:09:04.145Z,1012.70
2023-09-28T04:10:04.140Z,1012.70
2023-09-28T04:11:04.115Z,1012.74
2023-09-28T04:12:04.134Z,1012.73
2023-09-28T04:13:04.054Z,1012.77
2023-09-28T04:14:04.154Z,1012.81
2023-09-28T04:15:04.062Z,1012.81
2023-09-28T04:16:04.045Z,1012.88
2023-09-28T04:17:04.018Z,1012.80
2023-09-28T04:18:04.109Z,1012.75
2023-09-28T04:19:03.957Z,1012.79
2023-09-28T04:20:04.080Z,1012.80
2023-09-28T04:21:03.951Z,1012.72
2023-09-28T04:22:03.925Z,1012.71
2023-09-28T04:23:05.209Z,1012.70
2023-09-28T04:24:03.944Z,1012.63
2023-09-28T04:25:03.888Z,1012.61
2023-09-28T04:26:03.975Z,1012.65
2023-09-28T04:27:03.844Z,1012.59
2023-09-28T04:28:03.907Z,1012.54
2023-09-28T04:29:03.872Z,1012.53
2023-09-28T04:30:03.836Z,1012.52
2023-09-28T04:31:03.856Z,1012.52
2023-09-28T04:32:03.877Z,1012.54
2023-09-28T04:33:03.822Z,1012.62
2023-09-28T04:34:03.739Z,1012.71
2023-09-28T04:35:03.812Z,1012.67
2023-09-28T04:36:03.762Z,1012.68
2023-09-28T04:37:03.726Z,1012.71
2023-09-28T04:38:03.700Z,1012.78
2023-09-28T04:39:03.729Z,1012.78
2023-09-28T04:40:03.733Z,1012.84
2023-09-28T04:41:03.645Z,1012.85
2023-09-28T04:42:03.708Z,1012.90
2023-09-28T04:43:03.645Z,1012.84
2023-09-28T04:44:03.623Z,1012.84
2023-09-28T04:45:03.590Z,1012.81
2023-09-28T04:46:03.625Z,1012.80
2023-09-28T04:47:03.661Z,1012.80
2023-09-28T04:48:03.616Z,1012.80
2023-09-28T04:49:03.599Z,1012.82
2023-09-28T04:50:03.675Z,1012.78
2023-09-28T04:51:03.516Z,1012.86
2023-09-28T04:52:03.515Z,1012.81
2023-09-28T04:53:03.617Z,1012.82
2023-09-28T04:54:03.656Z,1012.83
2023-09-28T04:55:04.576Z,1012.84
2023-09-28T04:56:03.613Z,1012.91
2023-09-28T04:57:03.470Z,1012.89
2023-09-28T04:58:03.435Z,1012.93
2023-09-28T04:59:03.727Z,1012.95
2023-09-28T05:00:03.518Z,1012.89
2023-09-28T05:01:03.438Z,1012.92
2023-09-28T05:02:03.451Z,1012.89
2023-09-28T05:03:03.554Z,1012.86
2023-09-28T05:04:03.393Z,1012.92
2023-09-28T05:05:03.487Z,1012.97
2023-09-28T05:06:03.304Z,1012.95
2023-09-28T05:07:03.299Z,1012.91
2023-09-28T05:08:03.361Z,1012.95
2023-09-28T05:09:03.320Z,1012.92
2023-09-28T05:10:03.302Z,1012.91
2023-09-28T05:11:03.327Z,1012.92
2023-09-28T05:12:05.427Z,1012.98
2023-09-28T05:13:03.257Z,1012.94
2023-09-28T05:14:03.346Z,1012.90
2023-09-28T05:15:03.299Z,1012.86
2023-09-28T05:16:03.257Z,1012.86
2023-09-28T05:17:03.216Z,1012.90
2023-09-28T05:18:03.376Z,1012.93
2023-09-28T05:19:03.184Z,1012.94
2023-09-28T05:20:03.165Z,1012.90
2023-09-28T05:21:03.122Z,1012.91
2023-09-28T05:22:03.179Z,1012.89
2023-09-28T05:23:03.165Z,1012.96
2023-09-28T05:24:03.073Z,1013.03
2023-09-28T05:25:03.060Z,1013.05
2023-09-28T05:26:03.096Z,1013.05
2023-09-28T05:27:03.022Z,1013.07
2023-09-28T05:28:03.017Z,1013.10
2023-09-28T05:29:03.038Z,1013.13
2023-09-28T05:30:02.987Z,1013.15
2023-09-28T05:31:03.040Z,1013.16
2023-09-28T05:32:02.996Z,1013.16
2023-09-28T05:33:02.979Z,1013.18
2023-09-28T05:34:02.912Z,1013.23
2023-09-28T05:35:02.943Z,1013.18
2023-09-28T05:36:02.945Z,1013.21
2023-09-28T05:37:02.902Z,1013.26
2023-09-28T05:38:02.909Z,1013.24
2023-09-28T05:39:02.887Z,1013.29
2023-09-28T05:40:02.867Z,1013.32
2023-09-28T05:41:02.850Z,1013.31
2023-09-28T05:42:02.796Z,1013.33
2023-09-28T05:43:02.781Z,1013.37
2023-09-28T05:44:02.775Z,1013.36
2023-09-28T05:45:02.767Z,1013.38
2023-09-28T05:46:02.818Z,1013.36
2023-09-28T05:47:02.761Z,1013.43
2023-09-28T05:48:02.765Z,1013.43
2023-09-28T05:49:02.758Z,1013.45
2023-09-28T05:50:02.701Z,1013.46
2023-09-28T05:51:02.672Z,1013.45
2023-09-28T05:52:03.581Z,1013.49
2023-09-28T05:53:02.732Z,1013.46
2023-09-28T05:54:02.659Z,1013.48
2023-09-28T05:55:02.732Z,1013.47
2023-09-28T05:56:02.656Z,1013.50
2023-09-28T05:57:02.588Z,1013.46
2023-09-28T05:58:02.613Z,1013.48
2023-09-28T05:59:02.571Z,1013.47
2023-09-28T06:00:02.559Z,1013.54
2023-09-28T06:01:02.638Z,1013.61
2023-09-28T06:02:02.616Z,1013.61
2023-09-28T06:03:02.578Z,1013.62
2023-09-28T06:04:02.597Z,1013.63
2023-09-28T06:05:02.529Z,1013.55
2023-09-28T06:06:02.479Z,1013.54
2023-09-28T06:07:02.491Z,1013.60
2023-09-28T06:08:02.529Z,1013.53
2023-09-28T06:09:02.468Z,1013.57
2023-09-28T06:10:02.431Z,1013.58
2023-09-28T06:11:11.902Z,1013.59
2023-09-28T06:12:03.449Z,1013.64
2023-09-28T06:13:02.368Z,1013.57
2023-09-28T06:15:02.311Z,1013.58
2023-09-28T06:16:02.327Z,1013.60
2023-09-28T06:17:02.334Z,1013.63
2023-09-28T06:18:02.341Z,1013.58
2023-09-28T06:19:02.262Z,1013.57
2023-09-28T06:20:02.409Z,1013.63
2023-09-28T06:21:02.245Z,1013.64
2023-09-28T06:22:02.230Z,1013.69
2023-09-28T06:23:02.286Z,1013.67
2023-09-28T06:24:02.236Z,1013.71
2023-09-28T06:25:02.195Z,1013.71
2023-09-28T06:26:02.200Z,1013.71
2023-09-28T06:27:02.231Z,1013.73
2023-09-28T06:28:02.215Z,1013.79
2023-09-28T06:29:02.200Z,1013.79
2023-09-28T06:30:02.123Z,1013.78
2023-09-28T06:31:02.218Z,1013.83
2023-09-28T06:32:02.102Z,1013.86
2023-09-28T06:33:02.168Z,1013.88
2023-09-28T06:34:02.279Z,1013.88
2023-09-28T06:35:02.072Z,1013.87
2023-09-28T06:36:02.077Z,1013.83
2023-09-28T06:37:02.074Z,1013.77
2023-09-28T06:38:02.052Z,1013.70
2023-09-28T06:39:02.042Z,1013.70
2023-09-28T06:40:01.995Z,1013.70
2023-09-28T06:41:02.050Z,1013.71
2023-09-28T06:42:20.188Z,1013.77
2023-09-28T06:43:02.957Z,1013.79
2023-09-28T06:44:01.961Z,1013.79
2023-09-28T06:45:01.943Z,1013.80
2023-09-28T06:46:01.924Z,1013.75
2023-09-28T06:47:01.917Z,1013.70
2023-09-28T06:48:18.601Z,1013.72
2023-09-28T06:49:02.959Z,1013.69
2023-09-28T06:50:01.933Z,1013.69
2023-09-28T06:51:01.854Z,1013.72
2023-09-28T06:52:01.856Z,1013.77
2023-09-28T06:53:01.838Z,1013.78
2023-09-28T06:54:01.835Z,1013.72
2023-09-28T06:55:01.815Z,1013.74
2023-09-28T06:56:13.412Z,1013.74
2023-09-28T06:57:02.777Z,1013.75
2023-09-28T06:58:01.739Z,1013.70
2023-09-28T06:59:01.784Z,1013.73
2023-09-28T07:00:01.703Z,1013.79
2023-09-28T07:01:01.726Z,1013.83
2023-09-28T07:02:01.783Z,1013.91
2023-09-28T07:03:01.684Z,1013.86
2023-09-28T07:04:01.681Z,1013.84
2023-09-28T07:05:01.680Z,1013.80
2023-09-28T07:06:01.662Z,1013.78
2023-09-28T07:07:01.598Z,1013.83
2023-09-28T07:08:01.676Z,1013.84
2023-09-28T07:09:01.599Z,1013.83
2023-09-28T07:10:01.561Z,1013.82
2023-09-28T07:11:01.591Z,1013.88
2023-09-28T07:12:01.561Z,1013.91
2023-09-28T07:13:01.542Z,1013.94
2023-09-28T07:14:01.521Z,1013.96
2023-09-28T07:15:01.506Z,1013.97
2023-09-28T07:16:01.507Z,1013.96
2023-09-28T07:17:01.590Z,1013.96
2023-09-28T07:18:01.496Z,1014.00
2023-09-28T07:19:01.478Z,1014.01
2023-09-28T07:20:01.502Z,1014.06
2023-09-28T07:21:01.409Z,1014.07
2023-09-28T07:22:01.407Z,1014.06
2023-09-28T07:23:01.403Z,1014.09
2023-09-28T07:24:16.283Z,1014.10
2023-09-28T07:25:02.436Z,1014.06
2023-09-28T07:26:01.340Z,1014.10
2023-09-28T07:27:01.333Z,1014.14
2023-09-28T07:28:01.319Z,1014.11
2023-09-28T07:29:01.460Z,1014.13
2023-09-28T07:30:01.309Z,1014.11
2023-09-28T07:31:01.318Z,1014.11
2023-09-28T07:32:01.409Z,1014.10
2023-09-28T07:33:01.315Z,1014.08
2023-09-28T07:34:01.248Z,1014.04
2023-09-28T07:35:01.314Z,1014.04
2023-09-28T07:36:01.266Z,1014.08
2023-09-28T07:37:01.185Z,1014.12
2023-09-28T07:38:01.146Z,1014.07
2023-09-28T07:39:01.194Z,1014.10
2023-09-28T07:40:01.166Z,1014.18
2023-09-28T07:41:01.129Z,1014.08
2023-09-28T07:42:01.099Z,1014.12
2023-09-28T07:43:01.072Z,1014.13
2023-09-28T07:44:01.077Z,1014.13
2023-09-28T07:45:01.079Z,1014.12
2023-09-28T07:46:01.078Z,1014.15
2023-09-28T07:47:01.085Z,1014.13
2023-09-28T07:48:01.039Z,1014.14
2023-09-28T07:49:00.996Z,1014.19
2023-09-28T07:50:01.002Z,1014.19
2023-09-28T07:51:01.022Z,1014.17
2023-09-28T07:52:01.084Z,1014.12
2023-09-28T07:53:00.976Z,1014.07
2023-09-28T07:54:01.116Z,1014.06
2023-09-28T07:55:00.880Z,1014.06
2023-09-28T07:56:00.908Z,1014.10
2023-09-28T07:57:00.894Z,1014.12
2023-09-28T07:58:19.125Z,1014.14
2023-09-28T07:59:01.875Z,1014.15
2023-09-28T08:00:00.835Z,1014.16
2023-09-28T08:01:00.835Z,1014.17
2023-09-28T08:02:00.885Z,1014.17
2023-09-28T08:03:00.795Z,1014.17
2023-09-28T08:04:00.816Z,1014.17
2023-09-28T08:05:00.931Z,1014.18
2023-09-28T08:06:00.723Z,1014.22
2023-09-28T08:07:00.712Z,1014.16
2023-09-28T08:08:11.653Z,1014.14
2023-09-28T08:09:03.331Z,1014.16
2023-09-28T08:10:00.656Z,1014.20
2023-09-28T08:11:00.761Z,1014.21
2023-09-28T08:12:02.564Z,1014.25
2023-09-28T08:13:00.642Z,1014.25
2023-09-28T08:14:00.638Z,1014.27
2023-09-28T08:15:00.654Z,1014.31
2023-09-28T08:16:00.638Z,1014.30
2023-09-28T08:17:00.610Z,1014.28
2023-09-28T08:18:00.649Z,1014.24
2023-09-28T08:19:00.582Z,1014.25
2023-09-28T08:20:00.574Z,1014.21
2023-09-28T08:21:10.245Z,1014.24
2023-09-28T08:22:01.540Z,1014.32
2023-09-28T08:23:00.558Z,1014.35
2023-09-28T08:24:00.578Z,1014.38
2023-09-28T08:25:00.489Z,1014.44
2023-09-28T08:26:00.568Z,1014.48
2023-09-28T08:27:00.504Z,1014.47
2023-09-28T08:28:00.720Z,1014.48
2023-09-28T08:29:00.485Z,1014.49
2023-09-28T08:30:00.443Z,1014.51
2023-09-28T08:31:00.543Z,1014.48
2023-09-28T08:32:00.438Z,1014.45
2023-09-28T08:34:00.374Z,1014.42
2023-09-28T08:35:00.339Z,1014.41
2023-09-28T08:36:00.305Z,1014.38
2023-09-28T08:37:00.344Z,1014.35
2023-09-28T08:38:00.275Z,1014.39
2023-09-28T08:39:00.310Z,1014.38
2023-09-28T08:40:00.270Z,1014.33
2023-09-28T08:41:00.332Z,1014.38
2023-09-28T08:42:00.238Z,1014.41
2023-09-28T08:43:00.217Z,1014.39
2023-09-28T08:44:00.249Z,1014.35
2023-09-28T08:45:00.162Z,1014.40
2023-09-28T08:46:00.230Z,1014.44
2023-09-28T08:47:00.296Z,1014.50
2023-09-28T08:48:00.258Z,1014.50
2023-09-28T08:49:00.158Z,1014.44
2023-09-28T08:50:00.271Z,1014.51
2023-09-28T08:51:00.221Z,1014.51
2023-09-28T08:52:00.081Z,1014.53
2023-09-28T08:53:00.085Z,1014.57
2023-09-28T08:54:00.062Z,1014.55
2023-09-28T08:55:00.048Z,1014.63
2023-09-28T08:56:00.662Z,1014.60
2023-09-28T08:57:00.071Z,1014.61
2023-09-28T08:57:59.999Z,1014.64
2023-09-28T08:59:00.020Z,1014.63
2023-09-28T08:59:59.975Z,1014.63
2023-09-28T09:01:00.056Z,1014.53
2023-09-28T09:02:00.066Z,1014.59
2023-09-28T09:02:59.973Z,1014.56
2023-09-28T09:03:59.938Z,1014.59
2023-09-28T09:05:00.016Z,1014.62
2023-09-28T09:06:00.017Z,1014.64
2023-09-28T09:06:59.860Z,1014.69
2023-09-28T09:07:59.914Z,1014.71
2023-09-28T09:08:59.861Z,1014.72
2023-09-28T09:09:59.849Z,1014.76
2023-09-28T09:10:59.830Z,1014.81
2023-09-28T09:11:59.850Z,1014.84
2023-09-28T09:12:59.863Z,1014.76
2023-09-28T09:13:59.792Z,1014.84
2023-09-28T09:14:59.757Z,1014.83
2023-09-28T09:15:59.798Z,1014.79
2023-09-28T09:16:59.930Z,1014.84
2023-09-28T09:18:00.062Z,1014.80
2023-09-28T09:18:59.761Z,1014.85
2023-09-28T09:19:59.906Z,1014.80
2023-09-28T09:20:59.688Z,1014.86
2023-09-28T09:21:59.670Z,1014.78
2023-09-28T09:23:01.729Z,1014.84
2023-09-28T09:23:59.657Z,1014.77
2023-09-28T09:24:59.829Z,1014.80
2023-09-28T09:25:59.650Z,1014.78
2023-09-28T09:26:59.601Z,1014.74
2023-09-28T09:27:59.646Z,1014.69
2023-09-28T09:28:59.611Z,1014.69
2023-09-28T09:29:59.568Z,1014.64
2023-09-28T09:30:59.610Z,1014.63
2023-09-28T09:31:59.591Z,1014.60
2023-09-28T09:32:59.523Z,1014.61
2023-09-28T09:33:59.505Z,1014.64
2023-09-28T09:34:59.516Z,1014.58
2023-09-28T09:35:59.588Z,1014.56
2023-09-28T09:36:59.494Z,1014.52
2023-09-28T09:37:59.469Z,1014.53
2023-09-28T09:38:59.422Z,1014.54
2023-09-28T09:39:59.424Z,1014.58
2023-09-28T09:40:59.430Z,1014.55
2023-09-28T09:41:59.402Z,1014.55
2023-09-28T09:42:59.375Z,1014.54
2023-09-28T09:43:59.353Z,1014.56
2023-09-28T09:44:59.334Z,1014.51
2023-09-28T09:45:59.362Z,1014.50
2023-09-28T09:46:59.397Z,1014.59
2023-09-28T09:47:59.470Z,1014.57
2023-09-28T09:48:59.283Z,1014.54
2023-09-28T09:49:59.387Z,1014.53
2023-09-28T09:50:59.267Z,1014.57
2023-09-28T09:51:59.250Z,1014.54
2023-09-28T09:52:59.250Z,1014.55
2023-09-28T09:53:59.246Z,1014.49
2023-09-28T09:54:59.179Z,1014.51
2023-09-28T09:56:00.324Z,1014.52
2023-09-28T09:56:59.199Z,1014.52
2023-09-28T09:57:59.189Z,1014.43
2023-09-28T09:58:59.162Z,1014.44
2023-09-28T10:00:00.416Z,1014.45
2023-09-28T10:00:59.159Z,1014.47
2023-09-28T10:01:59.112Z,1014.50
2023-09-28T10:02:59.103Z,1014.53
2023-09-28T10:04:01.521Z,1014.54
2023-09-28T10:04:59.115Z,1014.53
2023-09-28T10:05:59.087Z,1014.55
2023-09-28T10:06:59.040Z,1014.55
2023-09-28T10:07:59.084Z,1014.49
2023-09-28T10:08:58.985Z,1014.56
2023-09-28T10:09:59.042Z,1014.52
2023-09-28T10:10:59.049Z,1014.50
2023-09-28T10:11:58.954Z,1014.58
2023-09-28T10:12:58.941Z,1014.51
2023-09-28T10:13:58.985Z,1014.46
2023-09-28T10:14:58.938Z,1014.44
2023-09-28T10:15:58.913Z,1014.43
2023-09-28T10:16:59.016Z,1014.42
2023-09-28T10:17:58.998Z,1014.39
2023-09-28T10:18:59.054Z,1014.43
2023-09-28T10:19:58.894Z,1014.41
2023-09-28T10:20:58.838Z,1014.40
2023-09-28T10:21:59.000Z,1014.49
2023-09-28T10:22:58.869Z,1014.53
2023-09-28T10:23:58.933Z,1014.51
2023-09-28T10:24:58.790Z,1014.56
2023-09-28T10:25:58.848Z,1014.52
2023-09-28T10:26:58.793Z,1014.54
2023-09-28T10:27:58.718Z,1014.43
2023-09-28T10:28:58.730Z,1014.43
2023-09-28T10:29:58.704Z,1014.45
2023-09-28T10:30:58.767Z,1014.45
2023-09-28T10:31:59.251Z,1014.41
2023-09-28T10:32:58.962Z,1014.42
2023-09-28T10:33:58.650Z,1014.39
2023-09-28T10:34:58.683Z,1014.44
2023-09-28T10:35:58.636Z,1014.46
2023-09-28T10:36:58.594Z,1014.47
2023-09-28T10:37:58.593Z,1014.45
2023-09-28T10:38:58.591Z,1014.51
2023-09-28T10:39:58.759Z,1014.57
2023-09-28T10:40:58.587Z,1014.58
2023-09-28T10:41:58.520Z,1014.58
2023-09-28T10:42:58.531Z,1014.57
2023-09-28T10:43:58.564Z,1014.56
2023-09-28T10:44:58.572Z,1014.54
2023-09-28T10:45:58.506Z,1014.63
2023-09-28T10:46:58.501Z,1014.65
2023-09-28T10:47:58.510Z,1014.70
2023-09-28T10:48:58.828Z,1014.63
2023-09-28T10:49:58.450Z,1014.68
2023-09-28T10:50:58.413Z,1014.66
2023-09-28T10:51:58.389Z,1014.68
2023-09-28T10:52:58.388Z,1014.66
2023-09-28T10:53:58.367Z,1014.61
2023-09-28T10:54:58.393Z,1014.66
2023-09-28T10:55:58.360Z,1014.62
2023-09-28T10:56:58.328Z,1014.64
2023-09-28T10:57:58.299Z,1014.64
2023-09-28T10:58:58.341Z,1014.66
2023-09-28T10:59:58.303Z,1014.64
2023-09-28T11:00:58.249Z,1014.67
2023-09-28T11:01:58.376Z,1014.65
2023-09-28T11:02:58.410Z,1014.72
2023-09-28T11:03:58.530Z,1014.61
2023-09-28T11:04:58.302Z,1014.66
2023-09-28T11:05:58.417Z,1014.66
2023-09-28T11:06:58.366Z,1014.66
2023-09-28T11:07:58.196Z,1014.66
2023-09-28T11:08:58.172Z,1014.68
2023-09-28T11:09:58.144Z,1014.68
2023-09-28T11:10:58.151Z,1014.60
2023-09-28T11:11:58.124Z,1014.59
2023-09-28T11:12:58.078Z,1014.64
2023-09-28T11:13:58.141Z,1014.64
2023-09-28T11:14:58.083Z,1014.61
2023-09-28T11:15:58.101Z,1014.63
2023-09-28T11:16:58.057Z,1014.61
2023-09-28T11:17:58.089Z,1014.55
2023-09-28T11:18:58.028Z,1014.57
2023-09-28T11:19:58.041Z,1014.54
2023-09-28T11:20:58.028Z,1014.55
2023-09-28T11:21:57.959Z,1014.52
2023-09-28T11:22:58.033Z,1014.48
2023-09-28T11:23:57.956Z,1014.48
2023-09-28T11:24:57.930Z,1014.45
2023-09-28T11:25:57.953Z,1014.48
2023-09-28T11:26:57.905Z,1014.50
2023-09-28T11:27:57.911Z,1014.51
2023-09-28T11:28:57.922Z,1014.50
2023-09-28T11:29:57.898Z,1014.49
2023-09-28T11:30:57.920Z,1014.50
2023-09-28T11:31:57.855Z,1014.53
2023-09-28T11:32:57.842Z,1014.49
2023-09-28T11:33:57.827Z,1014.48
2023-09-28T11:34:57.811Z,1014.42
2023-09-28T11:35:57.815Z,1014.43
2023-09-28T11:36:57.756Z,1014.47
2023-09-28T11:37:57.774Z,1014.47
2023-09-28T11:38:57.747Z,1014.45
2023-09-28T11:39:57.733Z,1014.45
2023-09-28T11:40:57.744Z,1014.38
2023-09-28T11:41:57.811Z,1014.39
2023-09-28T11:42:57.693Z,1014.39
2023-09-28T11:43:58.081Z,1014.47
2023-09-28T11:44:57.692Z,1014.45
2023-09-28T11:45:57.761Z,1014.50
2023-09-28T11:46:58.030Z,1014.50
2023-09-28T11:47:57.661Z,1014.53
2023-09-28T11:48:57.648Z,1014.57
2023-09-28T11:49:57.596Z,1014.61
2023-09-28T11:50:57.610Z,1014.61
2023-09-28T11:51:57.620Z,1014.54
2023-09-28T11:52:57.629Z,1014.58
2023-09-28T11:53:57.635Z,1014.67
2023-09-28T11:54:57.550Z,1014.61
2023-09-28T11:55:57.542Z,1014.58
2023-09-28T11:56:57.522Z,1014.54
2023-09-28T11:57:57.529Z,1014.56
2023-09-28T11:58:57.489Z,1014.57
2023-09-28T11:59:57.478Z,1014.58
2023-09-28T12:00:57.475Z,1014.66
2023-09-28T12:01:57.448Z,1014.60
2023-09-28T12:02:57.672Z,1014.66
2023-09-28T12:03:57.599Z,1014.69
2023-09-28T12:04:57.473Z,1014.63
2023-09-28T12:05:57.407Z,1014.71
2023-09-28T12:06:57.360Z,1014.76